createdAt,value
2022-09-30T00:00:13.889Z,7.83
2022-09-30T00:02:16.144Z,8.07
2022-09-30T00:04:21.643Z,7.83
2022-09-30T00:06:25.342Z,7.90
2022-09-30T00:08:27.352Z,8.17
2022-09-30T00:10:29.498Z,7.77
2022-09-30T00:12:31.594Z,7.93
2022-09-30T00:14:33.578Z,8.50
2022-09-30T00:16:37.218Z,7.90
2022-09-30T00:18:39.677Z,7.80
2022-09-30T00:20:41.670Z,8.47
2022-09-30T00:22:44.942Z,7.40
2022-09-30T00:24:46.901Z,7.63
2022-09-30T00:26:48.919Z,8.90
2022-09-30T00:28:58.433Z,8.47
2022-09-30T00:31:01.648Z,7.70
2022-09-30T00:33:04.828Z,6.53
2022-09-30T00:35:07.265Z,7.10
2022-09-30T00:37:09.230Z,7.73
2022-09-30T00:39:16.939Z,7.60
2022-09-30T00:41:18.904Z,7.00
2022-09-30T00:43:41.384Z,8.67
2022-09-30T00:45:51.841Z,8.00
2022-09-30T00:48:04.954Z,7.90
2022-09-30T00:50:21.533Z,8.10
2022-09-30T00:52:23.898Z,7.50
2022-09-30T00:54:29.902Z,8.37
2022-09-30T00:56:35.098Z,8.60
2022-09-30T00:58:48.207Z,7.60
2022-09-30T01:00:52.044Z,8.37
2022-09-30T01:02:54.458Z,7.70
2022-09-30T01:04:57.114Z,7.13
2022-09-30T01:07:05.255Z,7.73
2022-09-30T01:09:07.419Z,7.00
2022-09-30T01:11:09.573Z,7.27
2022-09-30T01:13:14.974Z,7.30
2022-09-30T01:15:17.533Z,8.30
2022-09-30T01:17:41.070Z,7.70
2022-09-30T01:19:57.336Z,7.47
2022-09-30T01:22:33.706Z,7.70
2022-09-30T01:24:47.778Z,7.30
2022-09-30T01:27:11.588Z,7.83
2022-09-30T01:29:35.738Z,6.70
2022-09-30T01:31:54.061Z,7.40
2022-09-30T01:34:05.296Z,7.53
2022-09-30T01:36:48.457Z,7.43
2022-09-30T01:39:08.236Z,7.30
2022-09-30T01:41:42.957Z,6.80
2022-09-30T01:44:03.420Z,7.30
2022-09-30T01:46:19.756Z,7.93
2022-09-30T01:48:51.368Z,8.00
2022-09-30T01:50:55.615Z,8.60
2022-09-30T01:53:33.261Z,7.73
2022-09-30T01:55:47.599Z,7.90
2022-09-30T01:57:56.860Z,7.10
2022-09-30T02:00:06.062Z,9.20
2022-09-30T02:02:19.674Z,8.00
2022-09-30T02:04:30.242Z,7.10
2022-09-30T02:06:36.155Z,8.00
2022-09-30T02:08:57.717Z,8.30
2022-09-30T02:11:10.171Z,7.30
2022-09-30T02:13:25.127Z,7.00
2022-09-30T02:15:38.552Z,6.60
2022-09-30T02:18:04.118Z,6.70
2022-09-30T02:20:08.287Z,7.10
2022-09-30T02:22:16.278Z,7.33
2022-09-30T02:24:19.454Z,7.27
2022-09-30T02:26:25.111Z,7.83
2022-09-30T02:28:28.427Z,6.47
2022-09-30T02:30:30.472Z,7.10
2022-09-30T02:32:36.176Z,7.30
2022-09-30T02:34:41.832Z,7.90
2022-09-30T02:36:46.584Z,7.10
2022-09-30T02:38:54.176Z,6.90
2022-09-30T02:40:58.896Z,7.30
2022-09-30T02:43:02.240Z,7.07
2022-09-30T02:45:10.311Z,6.93
2022-09-30T02:47:15.168Z,6.70
2022-09-30T02:49:31.010Z,6.70
2022-09-30T02:51:54.130Z,7.10
2022-09-30T02:54:06.034Z,8.10
2022-09-30T02:56:13.468Z,6.70
2022-09-30T02:58:17.717Z,6.60
2022-09-30T03:00:19.749Z,6.40
2022-09-30T03:02:21.952Z,7.07
2022-09-30T03:04:26.394Z,6.60
2022-09-30T03:06:28.914Z,6.20
2022-09-30T03:08:30.927Z,6.50
2022-09-30T03:10:33.052Z,6.87
2022-09-30T03:12:47.250Z,6.57
2022-09-30T03:15:10.135Z,6.27
2022-09-30T03:17:38.939Z,5.93
2022-09-30T03:19:50.319Z,6.53
2022-09-30T03:22:01.177Z,7.30
2022-09-30T03:24:27.582Z,6.43
2022-09-30T03:26:40.273Z,6.63
2022-09-30T03:28:46.912Z,6.80
2022-09-30T03:31:20.741Z,7.10
2022-09-30T03:33:25.558Z,6.20
2022-09-30T03:35:49.031Z,6.93
2022-09-30T03:38:10.614Z,7.83
2022-09-30T03:40:22.222Z,8.30
2022-09-30T03:42:29.122Z,8.43
2022-09-30T03:44:45.524Z,8.80
2022-09-30T03:47:01.245Z,8.43
2022-09-30T03:49:07.625Z,9.30
2022-09-30T03:51:09.881Z,7.93
2022-09-30T03:53:12.573Z,9.00
2022-09-30T03:55:15.663Z,9.30
2022-09-30T03:57:17.710Z,8.00
2022-09-30T03:59:24.422Z,8.90
2022-09-30T04:01:26.283Z,9.80
2022-09-30T04:03:28.572Z,9.47
2022-09-30T04:05:30.472Z,11.07
2022-09-30T04:07:32.608Z,10.00
2022-09-30T04:09:34.987Z,11.43
2022-09-30T04:11:37.064Z,11.70
2022-09-30T04:13:39.323Z,11.90
2022-09-30T04:15:42.289Z,12.10
2022-09-30T04:17:44.235Z,11.60
2022-09-30T04:19:46.219Z,11.07
2022-09-30T04:21:48.181Z,10.50
2022-09-30T04:23:50.726Z,9.73
2022-09-30T04:25:55.913Z,10.50
2022-09-30T04:27:58.034Z,10.27
2022-09-30T04:30:00.032Z,9.20
2022-09-30T04:32:02.038Z,10.73
2022-09-30T04:34:04.502Z,9.70
2022-09-30T04:36:07.373Z,9.67
2022-09-30T04:38:09.359Z,9.80
2022-09-30T04:40:12.535Z,10.70
2022-09-30T04:42:14.506Z,10.20
2022-09-30T04:44:16.528Z,10.77
2022-09-30T04:46:23.074Z,9.40
2022-09-30T04:48:25.115Z,11.63
2022-09-30T04:50:27.063Z,10.03
2022-09-30T04:52:29.119Z,11.13
2022-09-30T04:54:31.059Z,9.50
2022-09-30T04:56:33.518Z,10.33
2022-09-30T04:58:37.112Z,10.10
2022-09-30T05:00:39.525Z,9.73
2022-09-30T05:02:44.163Z,9.50
2022-09-30T05:04:46.219Z,9.90
2022-09-30T05:06:49.707Z,9.03
2022-09-30T05:08:51.635Z,9.93
2022-09-30T05:11:01.975Z,9.30
2022-09-30T05:13:03.921Z,8.70
2022-09-30T05:15:06.268Z,9.83
2022-09-30T05:17:08.740Z,10.70
2022-09-30T05:19:10.690Z,9.63
2022-09-30T05:21:14.795Z,9.30
2022-09-30T05:23:17.726Z,10.77
2022-09-30T05:25:19.687Z,10.83
2022-09-30T05:27:23.041Z,9.53
2022-09-30T05:29:25.030Z,9.70
2022-09-30T05:31:27.121Z,9.60
2022-09-30T05:33:29.921Z,10.17
2022-09-30T05:35:32.247Z,11.50
2022-09-30T05:37:34.715Z,10.70
2022-09-30T05:39:36.842Z,11.70
2022-09-30T05:41:38.791Z,11.07
2022-09-30T05:43:42.082Z,9.73
2022-09-30T05:45:52.832Z,9.90
2022-09-30T05:47:55.060Z,10.10
2022-09-30T05:49:57.007Z,9.70
2022-09-30T05:51:59.219Z,10.27
2022-09-30T05:54:01.156Z,9.63
2022-09-30T05:56:03.103Z,10.53
2022-09-30T05:58:05.054Z,9.20
2022-09-30T06:00:07.452Z,9.50
2022-09-30T06:02:14.157Z,9.10
2022-09-30T06:04:16.305Z,10.00
2022-09-30T06:06:19.658Z,9.30
2022-09-30T06:08:22.624Z,9.10
2022-09-30T06:10:24.558Z,10.03
2022-09-30T06:12:28.774Z,9.93
2022-09-30T06:14:30.715Z,10.43
2022-09-30T06:16:32.687Z,11.60
2022-09-30T06:18:35.299Z,9.47
2022-09-30T06:20:37.470Z,10.30
2022-09-30T06:22:39.466Z,11.43
2022-09-30T06:24:41.715Z,12.00
2022-09-30T06:26:43.744Z,11.70
2022-09-30T06:28:45.875Z,11.50
2022-09-30T06:30:48.004Z,11.40
2022-09-30T06:32:49.983Z,11.17
2022-09-30T06:34:55.564Z,13.33
2022-09-30T06:36:57.594Z,12.70
2022-09-30T06:39:03.866Z,10.87
2022-09-30T06:41:06.392Z,10.30
2022-09-30T06:43:08.389Z,10.73
2022-09-30T06:45:20.050Z,9.93
2022-09-30T06:47:26.272Z,10.43
2022-09-30T06:49:37.893Z,10.03
2022-09-30T06:51:42.668Z,13.73
2022-09-30T06:53:44.667Z,19.67
2022-09-30T06:55:46.856Z,15.73
2022-09-30T06:57:48.818Z,15.40
2022-09-30T06:59:51.978Z,14.33
2022-09-30T07:01:54.027Z,13.57
2022-09-30T07:03:58.026Z,12.93
2022-09-30T07:06:02.092Z,14.40
2022-09-30T07:08:04.317Z,14.30
2022-09-30T07:10:06.706Z,11.70
2022-09-30T07:12:08.814Z,11.93
2022-09-30T07:14:13.374Z,13.30
2022-09-30T07:16:17.519Z,11.83
2022-09-30T07:18:22.906Z,11.50
2022-09-30T07:20:24.875Z,12.10
2022-09-30T07:22:30.233Z,13.17
2022-09-30T07:24:32.178Z,13.00
2022-09-30T07:26:34.419Z,13.67
2022-09-30T07:28:39.308Z,14.50
2022-09-30T07:30:43.566Z,13.50
2022-09-30T07:32:45.547Z,14.47
2022-09-30T07:34:47.854Z,14.00
2022-09-30T07:36:49.918Z,13.33
2022-09-30T07:38:51.951Z,13.00
2022-09-30T07:41:03.073Z,12.03
2022-09-30T07:43:05.730Z,11.80
2022-09-30T07:45:08.119Z,11.20
2022-09-30T07:47:11.465Z,12.03
2022-09-30T07:49:16.095Z,9.90
2022-09-30T07:51:25.071Z,11.00
2022-09-30T07:53:27.090Z,10.60
2022-09-30T07:55:29.086Z,9.63
2022-09-30T07:57:31.122Z,9.50
2022-09-30T07:59:36.428Z,10.10
2022-09-30T08:01:38.468Z,9.00
2022-09-30T08:03:44.505Z,9.67
2022-09-30T08:05:48.477Z,9.53
2022-09-30T08:07:50.678Z,10.13
2022-09-30T08:09:52.826Z,9.37
2022-09-30T08:11:55.288Z,8.43
2022-09-30T08:13:57.359Z,8.43
2022-09-30T08:15:59.472Z,8.50
2022-09-30T08:18:01.996Z,8.30
2022-09-30T08:20:04.355Z,7.50
2022-09-30T08:22:06.495Z,8.10
2022-09-30T08:24:09.104Z,8.77
2022-09-30T08:26:13.093Z,8.17
2022-09-30T08:28:15.109Z,9.03
2022-09-30T08:30:17.616Z,8.50
2022-09-30T08:32:19.609Z,9.10
2022-09-30T08:34:21.734Z,9.83
2022-09-30T08:36:25.972Z,8.60
2022-09-30T08:38:27.854Z,8.80
2022-09-30T08:40:32.246Z,8.57
2022-09-30T08:42:52.747Z,8.00
2022-09-30T08:45:06.446Z,8.67
2022-09-30T08:47:33.302Z,7.27
2022-09-30T08:49:51.919Z,7.17
2022-09-30T08:51:54.375Z,7.00
2022-09-30T08:53:58.339Z,7.30
2022-09-30T08:56:02.852Z,6.80
2022-09-30T08:58:05.701Z,6.13
2022-09-30T09:00:11.423Z,6.37
2022-09-30T09:02:21.784Z,6.30
2022-09-30T09:04:23.866Z,7.37
2022-09-30T09:06:31.240Z,7.07
2022-09-30T09:09:05.676Z,7.67
2022-09-30T09:11:16.621Z,7.57
2022-09-30T09:13:33.309Z,7.50
2022-09-30T09:15:56.895Z,8.27
2022-09-30T09:18:22.463Z,8.80
2022-09-30T09:20:32.909Z,8.77
2022-09-30T09:22:35.505Z,8.83
2022-09-30T09:24:42.859Z,9.73
2022-09-30T09:26:44.996Z,10.70
2022-09-30T09:29:04.403Z,10.13
2022-09-30T09:31:14.448Z,11.20
2022-09-30T09:33:23.198Z,13.80
2022-09-30T09:35:31.357Z,11.80
2022-09-30T09:38:05.955Z,11.87
2022-09-30T09:40:22.390Z,13.00
2022-09-30T09:42:31.532Z,13.40
2022-09-30T09:44:39.248Z,14.10
2022-09-30T09:46:42.289Z,11.63
2022-09-30T09:48:44.849Z,11.17
2022-09-30T09:50:55.941Z,9.03
2022-09-30T09:53:32.801Z,7.20
2022-09-30T09:55:35.173Z,6.70
2022-09-30T09:57:37.433Z,6.77
2022-09-30T09:59:55.634Z,7.50
2022-09-30T10:01:57.709Z,5.40
2022-09-30T10:04:11.695Z,6.90
2022-09-30T10:06:13.950Z,14.50
2022-09-30T10:08:18.357Z,6.27
2022-09-30T10:10:23.842Z,6.80
2022-09-30T10:12:27.807Z,5.03
2022-09-30T10:14:29.708Z,6.03
2022-09-30T10:16:33.449Z,6.10
2022-09-30T10:18:36.762Z,5.97
2022-09-30T10:20:39.276Z,5.77
2022-09-30T10:22:41.316Z,6.53
2022-09-30T10:24:43.567Z,6.67
2022-09-30T10:26:48.625Z,5.60
2022-09-30T10:28:59.574Z,6.50
2022-09-30T10:31:07.861Z,5.63
2022-09-30T10:33:24.511Z,10.67
2022-09-30T10:35:26.540Z,4.50
2022-09-30T10:37:28.677Z,6.27
2022-09-30T10:39:34.657Z,4.93
2022-09-30T10:41:38.020Z,6.27
2022-09-30T10:43:44.691Z,12.40
2022-09-30T10:45:56.670Z,5.67
2022-09-30T10:48:16.536Z,10.23
2022-09-30T10:50:21.666Z,6.27
2022-09-30T10:52:26.996Z,4.27
2022-09-30T10:54:50.591Z,4.53
2022-09-30T10:56:52.624Z,5.17
2022-09-30T11:01:06.764Z,4.70
2022-09-30T11:03:15.371Z,4.60
2022-09-30T11:05:24.389Z,5.77
2022-09-30T11:07:30.537Z,6.13
2022-09-30T11:09:36.850Z,5.57
2022-09-30T11:11:47.173Z,5.70
2022-09-30T11:14:10.995Z,3.20
2022-09-30T11:16:30.121Z,3.63
2022-09-30T11:18:43.536Z,6.47
2022-09-30T11:20:50.230Z,4.00
2022-09-30T11:23:11.211Z,3.60
2022-09-30T11:25:19.387Z,5.33
2022-09-30T11:27:33.375Z,3.50
2022-09-30T11:29:52.407Z,7.53
2022-09-30T11:31:59.733Z,3.90
2022-09-30T11:34:01.931Z,4.77
2022-09-30T11:36:22.770Z,3.37
2022-09-30T11:38:46.513Z,4.00
2022-09-30T11:40:54.379Z,3.20
2022-09-30T11:43:14.564Z,2.80
2022-09-30T11:45:26.600Z,2.03
2022-09-30T11:47:38.043Z,3.00
2022-09-30T11:50:10.337Z,3.10
2022-09-30T11:52:15.230Z,10.10
2022-09-30T11:54:40.259Z,1.97
2022-09-30T11:56:42.186Z,2.33
2022-09-30T11:58:51.087Z,3.00
2022-09-30T12:00:59.298Z,2.50
2022-09-30T12:03:10.038Z,2.10
2022-09-30T12:05:34.869Z,2.13
2022-09-30T12:07:42.647Z,1.87
2022-09-30T12:09:57.761Z,3.00
2022-09-30T12:12:16.682Z,2.27
2022-09-30T12:14:36.528Z,1.87
2022-09-30T12:16:38.905Z,2.30
2022-09-30T12:18:44.078Z,2.60
2022-09-30T12:21:18.403Z,2.03
2022-09-30T12:23:28.804Z,2.50
2022-09-30T12:25:40.950Z,2.33
2022-09-30T12:27:46.667Z,3.43
2022-09-30T12:30:14.858Z,2.07
2022-09-30T12:32:31.046Z,4.00
2022-09-30T12:34:42.387Z,3.70
2022-09-30T12:36:47.270Z,3.47
2022-09-30T12:39:29.248Z,2.80
2022-09-30T12:41:41.014Z,13.70
2022-09-30T12:43:54.788Z,1.93
2022-09-30T12:46:16.155Z,2.30
2022-09-30T12:48:21.028Z,33.40
2022-09-30T12:50:28.544Z,2.57
2022-09-30T12:52:33.599Z,2.80
2022-09-30T12:54:39.732Z,2.17
2022-09-30T12:56:47.100Z,2.57
2022-09-30T12:58:50.694Z,3.07
2022-09-30T13:01:01.887Z,3.00
2022-09-30T13:03:15.403Z,2.73
2022-09-30T13:05:26.772Z,2.83
2022-09-30T13:07:33.415Z,3.00
2022-09-30T13:09:54.911Z,2.30
2022-09-30T13:11:59.789Z,2.63
2022-09-30T13:14:37.727Z,6.60
2022-09-30T13:17:21.618Z,2.93
2022-09-30T13:19:54.276Z,4.90
2022-09-30T13:22:22.686Z,2.00
2022-09-30T13:25:05.804Z,3.30
2022-09-30T13:27:13.440Z,3.53
2022-09-30T13:29:16.310Z,2.30
2022-09-30T13:31:20.299Z,2.07
2022-09-30T13:33:31.904Z,2.30
2022-09-30T13:35:40.862Z,3.40
2022-09-30T13:37:42.990Z,2.10
2022-09-30T13:39:52.130Z,2.90
2022-09-30T13:42:24.551Z,2.27
2022-09-30T13:44:32.746Z,2.20
2022-09-30T13:46:56.338Z,2.73
2022-09-30T13:49:36.695Z,2.93
2022-09-30T13:51:41.692Z,2.57
2022-09-30T13:53:55.375Z,3.00
2022-09-30T13:55:59.947Z,2.73
2022-09-30T13:58:18.570Z,3.57
2022-09-30T14:00:21.962Z,2.40
2022-09-30T14:02:42.469Z,5.17
2022-09-30T14:04:55.199Z,14.90
2022-09-30T14:07:20.372Z,2.43
2022-09-30T14:09:47.207Z,1.90
2022-09-30T14:11:52.566Z,30.00
2022-09-30T14:14:07.045Z,23.23
2022-09-30T14:16:47.373Z,20.17
2022-09-30T14:19:10.732Z,2.53
2022-09-30T14:21:21.502Z,2.80
2022-09-30T14:23:23.453Z,1.77
2022-09-30T14:25:25.726Z,2.60
2022-09-30T14:27:48.317Z,1.63
2022-09-30T14:30:13.218Z,2.63
2022-09-30T14:32:41.245Z,1.80
2022-09-30T14:34:43.532Z,2.37
2022-09-30T14:36:45.974Z,7.00
2022-09-30T14:38:52.420Z,5.93
2022-09-30T14:40:59.122Z,3.97
2022-09-30T14:43:04.943Z,5.43
2022-09-30T14:45:08.295Z,3.97
2022-09-30T14:47:15.363Z,3.93
2022-09-30T14:49:21.114Z,2.00
2022-09-30T14:51:27.527Z,1.50
2022-09-30T14:53:36.762Z,1.90
2022-09-30T14:55:38.707Z,2.30
2022-09-30T14:57:42.567Z,2.10
2022-09-30T14:59:44.937Z,1.67
2022-09-30T15:01:49.723Z,1.70
2022-09-30T15:03:59.551Z,1.73
2022-09-30T15:06:01.630Z,2.10
2022-09-30T15:08:03.745Z,1.70
2022-09-30T15:10:07.580Z,2.10
2022-09-30T15:12:13.472Z,4.77
2022-09-30T15:14:20.754Z,2.93
2022-09-30T15:16:24.452Z,1.83
2022-09-30T15:18:36.435Z,2.93
2022-09-30T15:20:38.556Z,2.27
2022-09-30T15:22:40.541Z,2.10
2022-09-30T15:24:42.765Z,1.80
2022-09-30T15:26:47.002Z,1.93
2022-09-30T15:28:49.351Z,2.07
2022-09-30T15:30:53.599Z,1.70
2022-09-30T15:33:00.402Z,1.27
2022-09-30T15:35:14.685Z,1.50
2022-09-30T15:37:24.602Z,1.37
2022-09-30T15:39:47.535Z,2.10
2022-09-30T15:41:50.191Z,1.90
2022-09-30T15:43:53.913Z,1.43
2022-09-30T15:45:59.598Z,1.60
2022-09-30T15:48:21.474Z,1.20
2022-09-30T15:50:44.404Z,1.27
2022-09-30T15:52:47.155Z,3.53
2022-09-30T15:54:49.096Z,2.30
2022-09-30T15:56:51.059Z,10.23
2022-09-30T15:58:59.817Z,5.87
2022-09-30T16:01:21.492Z,8.33
2022-09-30T16:03:29.071Z,5.37
2022-09-30T16:05:31.668Z,7.83
2022-09-30T16:07:33.700Z,4.50
2022-09-30T16:09:37.737Z,3.67
2022-09-30T16:11:41.986Z,3.37
2022-09-30T16:13:45.321Z,3.00
2022-09-30T16:15:47.997Z,3.27
2022-09-30T16:17:50.084Z,2.93
2022-09-30T16:20:07.684Z,6.80
2022-09-30T16:22:41.419Z,5.73
2022-09-30T16:24:43.815Z,6.43
2022-09-30T16:26:45.856Z,5.90
2022-09-30T16:28:47.859Z,7.57
2022-09-30T16:30:51.067Z,8.00
2022-09-30T16:32:55.837Z,7.40
2022-09-30T16:34:58.081Z,6.37
2022-09-30T16:37:14.002Z,5.33
2022-09-30T16:39:16.738Z,4.63
2022-09-30T16:41:18.756Z,3.60
2022-09-30T16:43:20.730Z,3.33
2022-09-30T16:45:22.891Z,3.10
2022-09-30T16:47:25.000Z,2.63
2022-09-30T16:49:27.024Z,2.73
2022-09-30T16:51:29.048Z,2.90
2022-09-30T16:53:31.303Z,3.27
2022-09-30T16:55:33.470Z,2.87
2022-09-30T16:57:35.471Z,3.10
2022-09-30T16:59:37.550Z,3.23
2022-09-30T17:01:39.744Z,4.03
2022-09-30T17:03:41.843Z,4.13
2022-09-30T17:05:45.283Z,3.77
2022-09-30T17:07:51.750Z,4.63
2022-09-30T17:09:53.673Z,4.27
2022-09-30T17:11:55.670Z,6.50
2022-09-30T17:13:57.961Z,6.60
2022-09-30T17:16:01.950Z,7.07
2022-09-30T17:18:08.964Z,8.80
2022-09-30T17:20:10.922Z,9.17
2022-09-30T17:22:12.893Z,7.30
2022-09-30T17:24:14.805Z,7.90
2022-09-30T17:26:17.188Z,8.43
2022-09-30T17:28:19.213Z,7.80
2022-09-30T17:30:21.410Z,7.43
2022-09-30T17:32:23.414Z,5.47
2022-09-30T17:34:28.117Z,5.63
2022-09-30T17:36:31.198Z,5.90
2022-09-30T17:38:34.381Z,5.50
2022-09-30T17:40:55.628Z,6.50
2022-09-30T17:43:12.960Z,7.07
2022-09-30T17:45:15.040Z,7.20
2022-09-30T17:47:17.057Z,7.90
2022-09-30T17:49:24.026Z,9.23
2022-09-30T17:51:26.354Z,9.60
2022-09-30T17:53:29.274Z,8.57
2022-09-30T17:55:31.838Z,8.90
2022-09-30T17:57:38.505Z,9.70
2022-09-30T17:59:43.310Z,11.63
2022-09-30T18:01:45.374Z,11.40
2022-09-30T18:03:47.833Z,12.03
2022-09-30T18:05:58.851Z,12.70
2022-09-30T18:08:01.082Z,13.67
2022-09-30T18:10:03.257Z,11.20
2022-09-30T18:12:06.233Z,10.53
2022-09-30T18:14:11.132Z,8.90
2022-09-30T18:16:13.137Z,9.57
2022-09-30T18:18:15.846Z,10.43
2022-09-30T18:20:20.688Z,11.10
2022-09-30T18:22:25.415Z,9.43
2022-09-30T18:24:45.981Z,7.17
2022-09-30T18:26:48.000Z,7.10
2022-09-30T18:28:52.760Z,6.63
2022-09-30T18:30:54.705Z,6.37
2022-09-30T18:32:59.085Z,6.63
2022-09-30T18:35:01.423Z,6.63
2022-09-30T18:37:04.151Z,5.73
2022-09-30T18:39:06.159Z,6.07
2022-09-30T18:41:08.172Z,5.13
2022-09-30T18:43:12.955Z,5.70
2022-09-30T18:45:15.221Z,5.43
2022-09-30T18:47:18.249Z,6.47
2022-09-30T18:49:20.230Z,6.60
2022-09-30T18:51:23.193Z,7.33
2022-09-30T18:53:25.246Z,7.80
2022-09-30T18:55:28.060Z,8.17
2022-09-30T18:57:32.397Z,8.23
2022-09-30T18:59:34.330Z,8.73
2022-09-30T19:01:37.021Z,7.37
2022-09-30T19:03:39.482Z,8.20
2022-09-30T19:05:41.635Z,7.60
2022-09-30T19:07:43.851Z,8.27
2022-09-30T19:09:46.596Z,8.93
2022-09-30T19:11:49.243Z,8.77
2022-09-30T19:13:55.713Z,10.10
2022-09-30T19:16:04.403Z,9.73
2022-09-30T19:18:06.861Z,9.80
2022-09-30T19:20:09.255Z,10.20
2022-09-30T19:22:13.393Z,9.63
2022-09-30T19:24:17.216Z,8.77
2022-09-30T19:26:19.439Z,10.77
2022-09-30T19:28:22.310Z,10.37
2022-09-30T19:30:25.420Z,10.70
2022-09-30T19:32:29.432Z,10.40
2022-09-30T19:34:32.559Z,10.67
2022-09-30T19:36:46.710Z,10.40
2022-09-30T19:39:03.691Z,11.17
2022-09-30T19:41:10.649Z,10.63
2022-09-30T19:43:12.552Z,10.80
2022-09-30T19:45:16.376Z,11.80
2022-09-30T19:47:18.961Z,10.80
2022-09-30T19:49:22.087Z,10.80
2022-09-30T19:51:24.595Z,18.03
2022-09-30T19:53:30.709Z,29.53
2022-09-30T19:55:42.780Z,37.27
2022-09-30T19:57:49.860Z,46.27
2022-09-30T19:59:52.084Z,44.80
2022-09-30T20:01:54.080Z,50.80
2022-09-30T20:04:05.037Z,42.90
2022-09-30T20:06:12.793Z,36.17
2022-09-30T20:08:14.728Z,31.97
2022-09-30T20:10:17.059Z,29.23
2022-09-30T20:12:19.178Z,26.80
2022-09-30T20:14:39.774Z,23.17
2022-09-30T20:16:43.613Z,24.50
2022-09-30T20:18:45.820Z,22.60
2022-09-30T20:20:48.344Z,21.93
2022-09-30T20:22:50.396Z,22.87
2022-09-30T20:24:52.503Z,22.00
2022-09-30T20:26:54.413Z,22.23
2022-09-30T20:28:57.829Z,18.17
2022-09-30T20:31:08.619Z,17.90
2022-09-30T20:33:10.969Z,20.37
2022-09-30T20:35:13.006Z,19.43
2022-09-30T20:37:14.991Z,19.40
2022-09-30T20:39:16.970Z,20.80
2022-09-30T20:41:18.908Z,24.27
2022-09-30T20:43:20.920Z,27.70
2022-09-30T20:45:22.973Z,35.57
2022-09-30T20:47:24.952Z,40.33
2022-09-30T20:49:28.546Z,38.10
2022-09-30T20:51:31.519Z,36.93
2022-09-30T20:53:33.819Z,30.27
2022-09-30T20:55:40.300Z,28.07
2022-09-30T20:57:42.596Z,27.80
2022-09-30T20:59:45.326Z,28.93
2022-09-30T21:01:47.298Z,24.97
2022-09-30T21:03:51.446Z,23.60
2022-09-30T21:05:53.815Z,24.17
2022-09-30T21:07:55.782Z,20.10
2022-09-30T21:09:57.748Z,23.73
2022-09-30T21:12:00.348Z,18.57
2022-09-30T21:14:02.319Z,20.03
2022-09-30T21:16:06.742Z,18.17
2022-09-30T21:18:08.888Z,17.27
2022-09-30T21:20:11.067Z,15.30
2022-09-30T21:22:13.058Z,13.47
2022-09-30T21:24:16.407Z,12.70
2022-09-30T21:26:18.466Z,13.40
2022-09-30T21:28:22.311Z,12.57
2022-09-30T21:30:24.602Z,12.73
2022-09-30T21:32:26.848Z,12.13
2022-09-30T21:34:28.809Z,11.37
2022-09-30T21:36:32.230Z,11.40
2022-09-30T21:38:34.359Z,11.30
2022-09-30T21:40:36.335Z,10.03
2022-09-30T21:42:38.302Z,10.20
2022-09-30T21:44:40.225Z,11.03
2022-09-30T21:46:47.372Z,12.20
2022-09-30T21:48:52.897Z,10.90
2022-09-30T21:50:55.400Z,11.70
2022-09-30T21:52:59.325Z,11.63
2022-09-30T21:55:01.841Z,11.90
2022-09-30T21:57:03.858Z,12.03
2022-09-30T21:59:06.653Z,10.57
2022-09-30T22:01:08.673Z,9.80
2022-09-30T22:03:11.506Z,11.33
2022-09-30T22:05:20.583Z,10.07
2022-09-30T22:07:25.072Z,10.60
2022-09-30T22:09:27.007Z,9.87
2022-09-30T22:11:30.453Z,9.70
2022-09-30T22:13:32.709Z,10.73
2022-09-30T22:15:34.962Z,9.40
2022-09-30T22:17:36.917Z,12.33
2022-09-30T22:19:38.856Z,9.60
2022-09-30T22:21:40.901Z,10.33
2022-09-30T22:23:43.825Z,10.47
2022-09-30T22:25:45.768Z,9.50
2022-09-30T22:27:48.045Z,10.37
2022-09-30T22:29:50.219Z,9.83
2022-09-30T22:31:52.401Z,10.40
2022-09-30T22:34:19.280Z,9.20
2022-09-30T22:36:39.602Z,11.13
2022-09-30T22:38:41.539Z,12.10
2022-09-30T22:40:43.462Z,11.53
2022-09-30T22:42:47.937Z,13.77
2022-09-30T22:44:50.263Z,13.23
2022-09-30T22:46:53.409Z,14.23
2022-09-30T22:48:57.213Z,13.40
2022-09-30T22:50:59.522Z,13.43
2022-09-30T22:53:01.777Z,12.60
2022-09-30T22:55:03.994Z,13.10
2022-09-30T22:57:09.847Z,11.67
2022-09-30T22:59:11.956Z,12.70
2022-09-30T23:01:14.086Z,10.63
2022-09-30T23:03:16.109Z,11.60
2022-09-30T23:05:18.148Z,12.00
2022-09-30T23:07:20.111Z,12.40
2022-09-30T23:09:22.239Z,11.00
2022-09-30T23:11:24.245Z,11.80
2022-09-30T23:13:30.576Z,12.20
2022-09-30T23:15:32.620Z,12.50
2022-09-30T23:17:35.763Z,11.40
2022-09-30T23:19:37.724Z,12.23
2022-09-30T23:21:40.765Z,13.07
2022-09-30T23:23:43.581Z,13.93
2022-09-30T23:25:45.528Z,14.33
2022-09-30T23:27:48.889Z,14.73
2022-09-30T23:29:50.983Z,14.90
2022-09-30T23:31:52.948Z,15.90
2022-09-30T23:33:57.163Z,15.20
2022-09-30T23:36:01.988Z,16.57
2022-09-30T23:38:03.922Z,15.33
2022-09-30T23:40:06.554Z,14.60
2022-09-30T23:42:08.594Z,14.73
2022-09-30T23:44:10.563Z,15.77
2022-09-30T23:46:12.834Z,17.20
2022-09-30T23:48:14.940Z,15.40
2022-09-30T23:50:16.889Z,15.30
2022-09-30T23:52:18.871Z,15.23
2022-09-30T23:54:20.875Z,15.73
2022-09-30T23:56:23.322Z,14.23
2022-09-30T23:58:26.379Z,15.77
